Elizabeth Ann — WCZ5348 — position and weather

sailwx.info

Track history (hours):
 
Tides and Currents Weather Stations Pressure Air Temp Water Temp Dewpoint Dewpoint Depression Visibility Wind Speed Wind Dir Waves Ship Positions

Elizabeth Ann

Owner: ATLANTIC GULF TOWING LLC, Chesapeake, VA. More information available from US FCC via Universal Licensing System and Coast Guard Vessel Documentation Center.

Last reported at 2018-May-14 16:57 UTC. Time now 2018-Aug-21 03:57 UTC.
Position N 27°43' W 082°37'.
Warning: this ship's position is months out of date.

; draft 4 m.

Type: Tug. MMSI: 366773150.

Date/timePositionNaut miles runAvg speedWind from/ knotsBaromVisibWave heightAir tempDewpointWater temp
2018-May-14 16:57N 27°43' W 082°37'2 5.0
2018-May-14 16:30N 27°46' W 082°37'1 1.1
2018-May-14 16:00N 27°46' W 082°38'6 0.7
2018-May-14 07:05N 27°39' W 082°37'2 6.3
2018-May-14 06:50N 27°41' W 082°37'2 5.9
2018-May-14 06:30N 27°43' W 082°37'3 5.6
2018-May-14 06:00N 27°45' W 082°37'3 5.8
2018-May-14 05:29N 27°48' W 082°34'3 5.5
2018-May-14 05:00N 27°50' W 082°34'3 5.6
2018-May-14 04:30N 27°53' W 082°33'1 1.2
2018-May-14 04:00N 27°53' W 082°32'0 0.0
2018-May-14 03:30N 27°53' W 082°32'0 0.0
2018-May-14 03:00N 27°53' W 082°32'0 0.0
2018-May-14 02:30N 27°53' W 082°32'0 0.0
2018-May-14 02:00N 27°53' W 082°32'0 0.0
2018-May-14 01:30N 27°53' W 082°32'0 0.0
2018-May-14 01:00N 27°53' W 082°32'0 0.0
2018-May-14 00:30N 27°53' W 082°32'0 0.0
2018-May-14 00:00N 27°53' W 082°32'0 0.0
2018-May-13 23:30N 27°53' W 082°32'0 0.0
2018-May-13 23:00N 27°53' W 082°32'0 0.0
2018-May-13 22:30N 27°53' W 082°32'0 0.0
2018-May-13 22:00N 27°53' W 082°32'0 0.0
2018-May-13 21:30N 27°53' W 082°32'0 0.0
2018-May-13 21:00N 27°53' W 082°32'0 0.0
2018-May-13 20:30N 27°53' W 082°32'0 0.1
2018-May-13 20:00N 27°53' W 082°32'0 0.0
2018-May-13 19:30N 27°53' W 082°32'0 0.0
2018-May-13 19:00N 27°53' W 082°32'0 0.0
2018-May-13 18:30N 27°53' W 082°32'0 0.0
2018-May-13 18:00N 27°53' W 082°32'0 0.0
2018-May-13 17:30N 27°53' W 082°32'0 0.0
2018-May-13 17:00N 27°53' W 082°32'0 0.0
2018-May-13 16:30N 27°53' W 082°32'0 0.0
2018-May-13 15:59N 27°53' W 082°32'0 0.0
2018-May-13 15:31N 27°53' W 082°32'4 8.6
2018-May-13 15:00N 27°49' W 082°34'5 9.3
2018-May-13 14:30N 27°45' W 082°37'3 0.1
2018-May-12 16:32N 27°42' W 082°37'0 9.4
2018-May-12 16:30N 27°42' W 082°37'4 8.8
2018-May-12 16:00N 27°47' W 082°36'4 7.3
2018-May-12 15:30N 27°50' W 082°34'4 7.5
2018-May-12 15:00N 27°53' W 082°32'0 0.0
2018-May-12 14:30N 27°53' W 082°32'0 0.0
2018-May-12 14:00N 27°53' W 082°32'0 0.0
2018-May-12 13:30N 27°53' W 082°32'0 0.0
2018-May-12 13:00N 27°53' W 082°32'0 0.0
2018-May-12 12:30N 27°53' W 082°32'0 0.0
2018-May-12 12:00N 27°53' W 082°32'0 0.0
2018-May-12 11:30N 27°53' W 082°32'0 0.0
2018-May-12 11:00N 27°53' W 082°32'0 0.0
2018-May-12 10:28N 27°53' W 082°32'0 0.0
2018-May-11 17:20N 27°53' W 082°32'0 0.0
2018-May-11 17:01N 27°53' W 082°32'1 2.5
2018-May-11 16:30N 27°52' W 082°33'510.0
2018-May-11 15:59N 27°47' W 082°35'3 3.6
2018-May-11 15:10N 27°46' W 082°38'0 0.0
2018-May-11 14:58N 27°46' W 082°38'0 0.1
2018-May-11 14:30N 27°46' W 082°38'2 4.9
2018-May-11 14:00N 27°47' W 082°35'3 5.4
2018-May-11 13:30N 27°50' W 082°34'2 4.7
2018-May-11 13:01N 27°52' W 082°33'2 3.2
2018-May-11 12:30N 27°53' W 082°33'0 0.5
2018-May-11 12:00N 27°53' W 082°32'0 0.5
2018-May-11 11:30N 27°53' W 082°33'0 0.6
2018-May-11 11:01N 27°53' W 082°32'0 0.1
2018-May-11 10:30N 27°53' W 082°32'0 0.0
2018-May-11 10:01N 27°53' W 082°32'0 0.0
2018-May-11 09:31N 27°53' W 082°32'0 0.0
2018-May-11 09:01N 27°53' W 082°32'0 0.0
2018-May-11 08:30N 27°53' W 082°32'0 0.0
2018-May-11 08:01N 27°53' W 082°32'0 0.0
2018-May-11 07:30N 27°53' W 082°32'0 0.0
2018-May-11 07:00N 27°53' W 082°32'0 0.0
2018-May-11 06:28N 27°53' W 082°32'0 0.0
2018-May-11 06:01N 27°53' W 082°32'0 0.0
2018-May-11 05:31N 27°53' W 082°32'0 0.0
2018-May-11 05:00N 27°53' W 082°32'0 0.0
2018-May-11 04:31N 27°53' W 082°32'0 0.0
2018-May-11 04:00N 27°53' W 082°32'0 0.0
2018-May-11 03:31N 27°53' W 082°32'0 0.0
2018-May-11 03:01N 27°53' W 082°32'0 0.0
2018-May-11 02:30N 27°53' W 082°32'0 0.0
2018-May-11 02:01N 27°53' W 082°32'0 0.0
2018-May-11 01:31N 27°53' W 082°32'0 0.0
2018-May-11 01:00N 27°53' W 082°32'0 0.0
2018-May-11 00:30N 27°53' W 082°32'0 0.0
2018-May-11 00:01N 27°53' W 082°32'0 0.0
2018-May-10 23:31N 27°53' W 082°32'0 0.0
2018-May-10 23:00N 27°53' W 082°32'0 0.0
2018-May-10 22:31N 27°53' W 082°32'0 0.0
2018-May-10 22:01N 27°53' W 082°32'0 0.0
2018-May-10 21:31N 27°53' W 082°32'0 0.0
2018-May-10 21:01N 27°53' W 082°32'0 0.1
2018-May-10 20:31N 27°53' W 082°32'0 0.1
2018-May-10 20:01N 27°53' W 082°32'0 0.0
2018-May-10 19:31N 27°53' W 082°32'0 0.0
2018-May-10 18:50N 27°53' W 082°32'0 1.0
2018-May-10 18:31N 27°53' W 082°33'0 0.1
2018-May-10 18:00N 27°53' W 082°33'0 0.0
2018-May-10 17:31N 27°53' W 082°33'0 0.0
2018-May-10 17:01N 27°53' W 082°33'0 0.0
2018-May-10 16:30N 27°53' W 082°33'0 0.0
2018-May-10 16:00N 27°53' W 082°33'0 0.0
2018-May-10 15:31N 27°53' W 082°33'0 0.0
2018-May-10 15:00N 27°53' W 082°33'0 0.0
2018-May-10 14:30N 27°53' W 082°33'0 0.0
2018-May-10 14:00N 27°53' W 082°33'0 0.0
2018-May-10 13:31N 27°53' W 082°33'0 0.0
2018-May-10 13:00N 27°53' W 082°33'0 0.0
2018-May-10 12:30N 27°53' W 082°33'0 0.0
2018-May-10 11:59N 27°53' W 082°33'0 0.9
2018-May-10 11:30N 27°53' W 082°32'0 0.0
2018-May-10 11:01N 27°53' W 082°32'0 0.0
2018-May-10 10:31N 27°53' W 082°32'0 0.0
2018-May-10 10:01N 27°53' W 082°32'0 0.0
2018-May-10 09:31N 27°53' W 082°32'0 0.0
2018-May-10 09:01N 27°53' W 082°32'0 0.0
2018-May-10 08:31N 27°53' W 082°32'0 0.0
2018-May-10 08:01N 27°53' W 082°32'0 0.0
2018-May-10 07:31N 27°53' W 082°32'0 0.0
2018-May-10 07:00N 27°53' W 082°32'0 0.0
2018-May-10 06:30N 27°53' W 082°32'0 0.0
2018-May-10 06:01N 27°53' W 082°32'0 0.0
2018-May-10 05:30N 27°53' W 082°32'0 0.0
2018-May-10 05:01N 27°53' W 082°32'0 0.0
2018-May-10 04:30N 27°53' W 082°32'0 0.0
2018-May-10 04:01N 27°53' W 082°32'0 0.0
2018-May-10 03:31N 27°53' W 082°32'0 0.0
2018-May-10 03:01N 27°53' W 082°32'0 0.0
2018-May-10 02:30N 27°53' W 082°32'0 0.0
2018-May-10 02:00N 27°53' W 082°32'0 0.0
2018-May-10 01:30N 27°53' W 082°32'0 0.0
2018-May-10 01:00N 27°53' W 082°32'0 0.0
2018-May-10 00:30N 27°53' W 082°32'0 0.0
2018-May-10 00:00N 27°53' W 082°32'0 0.0
2018-May-09 23:31N 27°53' W 082°32'0 0.0
2018-May-09 23:00N 27°53' W 082°32'0 0.0
2018-May-09 22:31N 27°53' W 082°32'0 0.0
2018-May-09 22:00N 27°53' W 082°32'0 0.0
2018-May-09 21:30N 27°53' W 082°32'0 0.0
2018-May-09 21:01N 27°53' W 082°32'0 0.0
2018-May-09 20:31N 27°53' W 082°32'0 0.0
2018-May-09 19:59N 27°53' W 082°32'0 0.0
2018-May-09 19:30N 27°53' W 082°32'0 0.0
2018-May-09 19:00N 27°53' W 082°32'0 0.0
2018-May-09 18:29N 27°53' W 082°32'0 0.0
2018-May-09 18:01N 27°53' W 082°32'0 0.1
2018-May-09 17:31N 27°53' W 082°32'1 2.4
2018-May-09 17:01N 27°52' W 082°33'4 8.9
2018-May-09 16:30N 27°48' W 082°34'4 7.0
2018-May-09 16:00N 27°46' W 082°37'1 1.3
2018-May-09 15:29N 27°46' W 082°38'1 2.3
2018-May-09 15:00N 27°45' W 082°37'18 5.5
2018-May-09 11:40N 27°36' W 082°54'2 6.6
2018-May-09 11:25N 27°36' W 082°56'3 6.2
2018-May-09 10:59N 27°35' W 082°59'2 4.2
2018-May-09 10:30N 27°34' W 083°00'2 4.8
2018-May-09 10:00N 27°31' W 083°00'3 4.8
2018-May-09 09:26N 27°29' W 082°60'3 4.8
2018-May-09 08:48N 27°25' W 082°59'6 4.8
2018-May-09 07:33N 27°20' W 082°59'1 4.6
2018-May-09 07:26N 27°19' W 082°59'195 4.1
2018-May-07 08:25N 25°20' W 080°07'3 6.1
2018-May-07 07:54N 25°23' W 080°06'2 6.0
2018-May-07 07:30N 25°26' W 080°05'3 5.9
2018-May-07 07:00N 25°29' W 080°05'3 5.7
2018-May-07 06:30N 25°31' W 080°04'3 5.4
2018-May-07 06:00N 25°34' W 080°04'3 5.2
2018-May-07 05:30N 25°37' W 080°04'3 5.2
2018-May-07 05:00N 25°39' W 080°04'3 5.2
2018-May-07 04:30N 25°42' W 080°04'2 5.0
2018-May-07 04:00N 25°44' W 080°04'2 4.8
2018-May-07 03:31N 25°47' W 080°04'3 5.2
2018-May-07 03:00N 25°49' W 080°04'3 5.2
2018-May-07 02:30N 25°52' W 080°04'3 5.8
2018-May-07 02:00N 25°55' W 080°04'3 6.7
2018-May-07 01:31N 25°58' W 080°04'3 6.4
2018-May-07 01:01N 26°01' W 080°04'3 6.2
2018-May-07 00:30N 26°04' W 080°03'3 6.4
2018-May-07 00:01N 26°08' W 080°03'3 6.4
2018-May-06 23:31N 26°11' W 080°03'3 6.5
2018-May-06 23:00N 26°14' W 080°03'3 6.7
2018-May-06 22:30N 26°17' W 080°02'3 6.7
2018-May-06 22:01N 26°21' W 080°02'3 6.7
2018-May-06 21:30N 26°24' W 080°01'3 7.0
2018-May-06 21:00N 26°28' W 080°01'18 6.7
2018-May-06 18:16N 26°46' W 079°59'2 6.0
2018-May-06 17:55N 26°48' W 079°59'3 5.9
2018-May-06 17:28N 26°50' W 079°59'3 5.9
2018-May-06 17:01N 26°53' W 079°60'3 6.8
2018-May-06 16:31N 26°56' W 080°00'4 7.5
2018-May-06 16:01N 27°00' W 080°01'  
Track history (hours):
 
Tides and Currents Weather Stations Pressure Air Temp Water Temp Dewpoint Dewpoint Depression Visibility Wind Speed Wind Dir Waves Ship Positions

Elizabeth Ann

Owner: ATLANTIC GULF TOWING LLC, Chesapeake, VA. More information available from US FCC via Universal Licensing System and Coast Guard Vessel Documentation Center.

Last reported at 2018-May-14 16:57 UTC. Time now 2018-Aug-21 03:57 UTC.
Position N 27°43' W 082°37'.
Warning: this ship's position is months out of date.

; draft 4 m.

Type: Tug. MMSI: 366773150.

Date/timePositionNaut miles runAvg speedWind from/ knotsBaromVisibWave heightAir tempDewpointWater temp
2018-May-14 16:57N 27°43' W 082°37'2 5.0
2018-May-14 16:30N 27°46' W 082°37'1 1.1
2018-May-14 16:00N 27°46' W 082°38'6 0.7
2018-May-14 07:05N 27°39' W 082°37'2 6.3
2018-May-14 06:50N 27°41' W 082°37'2 5.9
2018-May-14 06:30N 27°43' W 082°37'3 5.6
2018-May-14 06:00N 27°45' W 082°37'3 5.8
2018-May-14 05:29N 27°48' W 082°34'3 5.5
2018-May-14 05:00N 27°50' W 082°34'3 5.6
2018-May-14 04:30N 27°53' W 082°33'1 1.2
2018-May-14 04:00N 27°53' W 082°32'0 0.0
2018-May-14 03:30N 27°53' W 082°32'0 0.0
2018-May-14 03:00N 27°53' W 082°32'0 0.0
2018-May-14 02:30N 27°53' W 082°32'0 0.0
2018-May-14 02:00N 27°53' W 082°32'0 0.0
2018-May-14 01:30N 27°53' W 082°32'0 0.0
2018-May-14 01:00N 27°53' W 082°32'0 0.0
2018-May-14 00:30N 27°53' W 082°32'0 0.0
2018-May-14 00:00N 27°53' W 082°32'0 0.0
2018-May-13 23:30N 27°53' W 082°32'0 0.0
2018-May-13 23:00N 27°53' W 082°32'0 0.0
2018-May-13 22:30N 27°53' W 082°32'0 0.0
2018-May-13 22:00N 27°53' W 082°32'0 0.0
2018-May-13 21:30N 27°53' W 082°32'0 0.0
2018-May-13 21:00N 27°53' W 082°32'0 0.0
2018-May-13 20:30N 27°53' W 082°32'0 0.1
2018-May-13 20:00N 27°53' W 082°32'0 0.0
2018-May-13 19:30N 27°53' W 082°32'0 0.0
2018-May-13 19:00N 27°53' W 082°32'0 0.0
2018-May-13 18:30N 27°53' W 082°32'0 0.0
2018-May-13 18:00N 27°53' W 082°32'0 0.0
2018-May-13 17:30N 27°53' W 082°32'0 0.0
2018-May-13 17:00N 27°53' W 082°32'0 0.0
2018-May-13 16:30N 27°53' W 082°32'0 0.0
2018-May-13 15:59N 27°53' W 082°32'0 0.0
2018-May-13 15:31N 27°53' W 082°32'4 8.6
2018-May-13 15:00N 27°49' W 082°34'5 9.3
2018-May-13 14:30N 27°45' W 082°37'3 0.1
2018-May-12 16:32N 27°42' W 082°37'0 9.4
2018-May-12 16:30N 27°42' W 082°37'4 8.8
2018-May-12 16:00N 27°47' W 082°36'4 7.3
2018-May-12 15:30N 27°50' W 082°34'4 7.5
2018-May-12 15:00N 27°53' W 082°32'0 0.0
2018-May-12 14:30N 27°53' W 082°32'0 0.0
2018-May-12 14:00N 27°53' W 082°32'0 0.0
2018-May-12 13:30N 27°53' W 082°32'0 0.0
2018-May-12 13:00N 27°53' W 082°32'0 0.0
2018-May-12 12:30N 27°53' W 082°32'0 0.0
2018-May-12 12:00N 27°53' W 082°32'0 0.0
2018-May-12 11:30N 27°53' W 082°32'0 0.0
2018-May-12 11:00N 27°53' W 082°32'0 0.0
2018-May-12 10:28N 27°53' W 082°32'0 0.0
2018-May-11 17:20N 27°53' W 082°32'0 0.0
2018-May-11 17:01N 27°53' W 082°32'1 2.5
2018-May-11 16:30N 27°52' W 082°33'510.0
2018-May-11 15:59N 27°47' W 082°35'3 3.6
2018-May-11 15:10N 27°46' W 082°38'0 0.0
2018-May-11 14:58N 27°46' W 082°38'0 0.1
2018-May-11 14:30N 27°46' W 082°38'2 4.9
2018-May-11 14:00N 27°47' W 082°35'3 5.4
2018-May-11 13:30N 27°50' W 082°34'2 4.7
2018-May-11 13:01N 27°52' W 082°33'2 3.2
2018-May-11 12:30N 27°53' W 082°33'0 0.5
2018-May-11 12:00N 27°53' W 082°32'0 0.5
2018-May-11 11:30N 27°53' W 082°33'0 0.6
2018-May-11 11:01N 27°53' W 082°32'0 0.1
2018-May-11 10:30N 27°53' W 082°32'0 0.0
2018-May-11 10:01N 27°53' W 082°32'0 0.0
2018-May-11 09:31N 27°53' W 082°32'0 0.0
2018-May-11 09:01N 27°53' W 082°32'0 0.0
2018-May-11 08:30N 27°53' W 082°32'0 0.0
2018-May-11 08:01N 27°53' W 082°32'0 0.0
2018-May-11 07:30N 27°53' W 082°32'0 0.0
2018-May-11 07:00N 27°53' W 082°32'0 0.0
2018-May-11 06:28N 27°53' W 082°32'0 0.0
2018-May-11 06:01N 27°53' W 082°32'0 0.0
2018-May-11 05:31N 27°53' W 082°32'0 0.0
2018-May-11 05:00N 27°53' W 082°32'0 0.0
2018-May-11 04:31N 27°53' W 082°32'0 0.0
2018-May-11 04:00N 27°53' W 082°32'0 0.0
2018-May-11 03:31N 27°53' W 082°32'0 0.0
2018-May-11 03:01N 27°53' W 082°32'0 0.0
2018-May-11 02:30N 27°53' W 082°32'0 0.0
2018-May-11 02:01N 27°53' W 082°32'0 0.0
2018-May-11 01:31N 27°53' W 082°32'0 0.0
2018-May-11 01:00N 27°53' W 082°32'0 0.0
2018-May-11 00:30N 27°53' W 082°32'0 0.0
2018-May-11 00:01N 27°53' W 082°32'0 0.0
2018-May-10 23:31N 27°53' W 082°32'0 0.0
2018-May-10 23:00N 27°53' W 082°32'0 0.0
2018-May-10 22:31N 27°53' W 082°32'0 0.0
2018-May-10 22:01N 27°53' W 082°32'0 0.0
2018-May-10 21:31N 27°53' W 082°32'0 0.0
2018-May-10 21:01N 27°53' W 082°32'0 0.1
2018-May-10 20:31N 27°53' W 082°32'0 0.1
2018-May-10 20:01N 27°53' W 082°32'0 0.0
2018-May-10 19:31N 27°53' W 082°32'0 0.0
2018-May-10 18:50N 27°53' W 082°32'0 1.0
2018-May-10 18:31N 27°53' W 082°33'0 0.1
2018-May-10 18:00N 27°53' W 082°33'0 0.0
2018-May-10 17:31N 27°53' W 082°33'0 0.0
2018-May-10 17:01N 27°53' W 082°33'0 0.0
2018-May-10 16:30N 27°53' W 082°33'0 0.0
2018-May-10 16:00N 27°53' W 082°33'0 0.0
2018-May-10 15:31N 27°53' W 082°33'0 0.0
2018-May-10 15:00N 27°53' W 082°33'0 0.0
2018-May-10 14:30N 27°53' W 082°33'0 0.0
2018-May-10 14:00N 27°53' W 082°33'0 0.0
2018-May-10 13:31N 27°53' W 082°33'0 0.0
2018-May-10 13:00N 27°53' W 082°33'0 0.0
2018-May-10 12:30N 27°53' W 082°33'0 0.0
2018-May-10 11:59N 27°53' W 082°33'0 0.9
2018-May-10 11:30N 27°53' W 082°32'0 0.0
2018-May-10 11:01N 27°53' W 082°32'0 0.0
2018-May-10 10:31N 27°53' W 082°32'0 0.0
2018-May-10 10:01N 27°53' W 082°32'0 0.0
2018-May-10 09:31N 27°53' W 082°32'0 0.0
2018-May-10 09:01N 27°53' W 082°32'0 0.0
2018-May-10 08:31N 27°53' W 082°32'0 0.0
2018-May-10 08:01N 27°53' W 082°32'0 0.0
2018-May-10 07:31N 27°53' W 082°32'0 0.0
2018-May-10 07:00N 27°53' W 082°32'0 0.0
2018-May-10 06:30N 27°53' W 082°32'0 0.0
2018-May-10 06:01N 27°53' W 082°32'0 0.0
2018-May-10 05:30N 27°53' W 082°32'0 0.0
2018-May-10 05:01N 27°53' W 082°32'0 0.0
2018-May-10 04:30N 27°53' W 082°32'0 0.0
2018-May-10 04:01N 27°53' W 082°32'0 0.0
2018-May-10 03:31N 27°53' W 082°32'0 0.0
2018-May-10 03:01N 27°53' W 082°32'0 0.0
2018-May-10 02:30N 27°53' W 082°32'0 0.0
2018-May-10 02:00N 27°53' W 082°32'0 0.0
2018-May-10 01:30N 27°53' W 082°32'0 0.0
2018-May-10 01:00N 27°53' W 082°32'0 0.0
2018-May-10 00:30N 27°53' W 082°32'0 0.0
2018-May-10 00:00N 27°53' W 082°32'0 0.0
2018-May-09 23:31N 27°53' W 082°32'0 0.0
2018-May-09 23:00N 27°53' W 082°32'0 0.0
2018-May-09 22:31N 27°53' W 082°32'0 0.0
2018-May-09 22:00N 27°53' W 082°32'0 0.0
2018-May-09 21:30N 27°53' W 082°32'0 0.0
2018-May-09 21:01N 27°53' W 082°32'0 0.0
2018-May-09 20:31N 27°53' W 082°32'0 0.0
2018-May-09 19:59N 27°53' W 082°32'0 0.0
2018-May-09 19:30N 27°53' W 082°32'0 0.0
2018-May-09 19:00N 27°53' W 082°32'0 0.0
2018-May-09 18:29N 27°53' W 082°32'0 0.0
2018-May-09 18:01N 27°53' W 082°32'0 0.1
2018-May-09 17:31N 27°53' W 082°32'1 2.4
2018-May-09 17:01N 27°52' W 082°33'4 8.9
2018-May-09 16:30N 27°48' W 082°34'4 7.0
2018-May-09 16:00N 27°46' W 082°37'1 1.3
2018-May-09 15:29N 27°46' W 082°38'1 2.3
2018-May-09 15:00N 27°45' W 082°37'18 5.5
2018-May-09 11:40N 27°36' W 082°54'2 6.6
2018-May-09 11:25N 27°36' W 082°56'3 6.2
2018-May-09 10:59N 27°35' W 082°59'2 4.2
2018-May-09 10:30N 27°34' W 083°00'2 4.8
2018-May-09 10:00N 27°31' W 083°00'3 4.8
2018-May-09 09:26N 27°29' W 082°60'3 4.8
2018-May-09 08:48N 27°25' W 082°59'6 4.8
2018-May-09 07:33N 27°20' W 082°59'1 4.6
2018-May-09 07:26N 27°19' W 082°59'195 4.1
2018-May-07 08:25N 25°20' W 080°07'3 6.1
2018-May-07 07:54N 25°23' W 080°06'2 6.0
2018-May-07 07:30N 25°26' W 080°05'3 5.9
2018-May-07 07:00N 25°29' W 080°05'3 5.7
2018-May-07 06:30N 25°31' W 080°04'3 5.4
2018-May-07 06:00N 25°34' W 080°04'3 5.2
2018-May-07 05:30N 25°37' W 080°04'3 5.2
2018-May-07 05:00N 25°39' W 080°04'3 5.2
2018-May-07 04:30N 25°42' W 080°04'2 5.0
2018-May-07 04:00N 25°44' W 080°04'2 4.8
2018-May-07 03:31N 25°47' W 080°04'3 5.2
2018-May-07 03:00N 25°49' W 080°04'3 5.2
2018-May-07 02:30N 25°52' W 080°04'3 5.8
2018-May-07 02:00N 25°55' W 080°04'3 6.7
2018-May-07 01:31N 25°58' W 080°04'3 6.4
2018-May-07 01:01N 26°01' W 080°04'3 6.2
2018-May-07 00:30N 26°04' W 080°03'3 6.4
2018-May-07 00:01N 26°08' W 080°03'3 6.4
2018-May-06 23:31N 26°11' W 080°03'3 6.5
2018-May-06 23:00N 26°14' W 080°03'3 6.7
2018-May-06 22:30N 26°17' W 080°02'3 6.7
2018-May-06 22:01N 26°21' W 080°02'3 6.7
2018-May-06 21:30N 26°24' W 080°01'3 7.0
2018-May-06 21:00N 26°28' W 080°01'18 6.7
2018-May-06 18:16N 26°46' W 079°59'2 6.0
2018-May-06 17:55N 26°48' W 079°59'3 5.9
2018-May-06 17:28N 26°50' W 079°59'3 5.9
2018-May-06 17:01N 26°53' W 079°60'3 6.8
2018-May-06 16:31N 26°56' W 080°00'4 7.5
2018-May-06 16:01N 27°00' W 080°01'  

Dump ship's entire track history